Tiempo atmosférico en la estación meteorológica de Llucmajor, Puig d?Escorca, Illes Balears (113 m.)



Fecha
DESCASC
Temp. máxima en grados centígrados (hora)
DESCASC
Temp. mínima en grados centígrados (hora)
DESCASC
Temp. media en grados centígrados
DESCASC
Racha de viento máxima en m/sg (hora)
DESCASC
Velocidad máxima media en intervalos de 10 minutos(hora)
DESCASC
Precipitaciones diarias en mm
DESCASC
Precipitaciones de 00:00 a 06:00 en mm
DESCASC
Precipitaciones de 06:00 a 12:00 en mm
DESCASC
Precipitaciones de 12:00 a 18:00 en mm
DESCASC
Precipitaciones de 18:00 a 24:00 en mm
DESCASC

Gráficas

Temp. máximas Temp. mínimas Temp. medias Precipitaciones Rachas de viento máximas Velocidades máximas media en intervalos de 10 minutos

Datos horarios

Fecha y hora oficial Temperatura (ºC) Velocidad del viento (km/h) Dirección del viento Racha (km/h) Dirección de racha Precipitación (mm) Presión (hPa) Tendencia (hPa) Humedad (%)
2019-04-17 23:00:00 13.2 22 Nordeste 36 Nordeste 0 -- -- 84
2019-04-17 22:00:00 13.2 16 Nordeste 28 Nordeste 0 -- -- 82
2019-04-17 21:00:00 13.9 16 Este 35 Este 0 -- -- 77
2019-04-17 20:00:00 15.2 20 Este 37 Este 0 -- -- 71
2019-04-17 19:00:00 17 24 Este 41 Este 0 -- -- 66
2019-04-17 18:00:00 17.8 29 Este 45 Este 0 -- -- 65
2019-04-17 17:00:00 18 29 Este 48 Este 0 -- -- 64
2019-04-17 16:00:00 19 28 Sudeste 45 Este 0 -- -- 61
2019-04-17 15:00:00 19.7 21 Sudeste 39 Sudeste 0 -- -- 58
2019-04-17 14:00:00 19 18 Sudeste 36 Sudeste 0 -- -- 63
2019-04-17 13:00:00 18.5 21 Sudeste 33 Sudeste 0 -- -- 64
2019-04-17 12:00:00 19.3 17 Sudeste 33 Este 0 -- -- 60
2019-04-17 11:00:00 18.5 19 Este 29 Este 0 -- -- 64
2019-04-17 10:00:00 17 15 Este 32 Este 0 -- -- 76
2019-04-17 09:00:00 15.9 10 Nordeste 17 Nordeste 0 -- -- 88
2019-04-17 08:00:00 11 10 Nordeste 16 Nordeste 0 -- -- 93
2019-04-17 07:00:00 10.1 11 Nordeste 19 Nordeste 0 -- -- 93
2019-04-17 06:00:00 10.1 9 Norte 15 Nordeste 0 -- -- 92
2019-04-17 05:00:00 10.3 9 Nordeste 13 Nordeste 0 -- -- 91
2019-04-17 04:00:00 10.5 10 Nordeste 17 Este 0 -- -- 88
2019-04-17 03:00:00 10.9 10 Nordeste 14 Este 0 -- -- 87
2019-04-17 02:00:00 11.3 9 Nordeste 15 Este 0 -- -- 86
2019-04-17 01:00:00 11.6 11 Este 16 Nordeste 0 -- -- 85
2019-04-17 00:00:00 12.1 11 Nordeste 16 Nordeste 0 -- -- 83
2019-04-16 23:00:00 12.3 11 Nordeste 19 Nordeste 0 -- -- 79
2019-04-16 22:00:00 13.1 12 Nordeste 17 Nordeste 0 -- -- 78
2019-04-16 21:00:00 14 6 Nordeste 14 Este 0 -- -- 74
2019-04-16 20:00:00 16.1 10 Sudeste 16 Sudeste 0 -- -- 64
2019-04-16 19:00:00 18.5 6 Sudeste 14 Sur 0 -- -- 56
2019-04-16 18:00:00 19.4 6 Sur 20 Sur 0 -- -- 51
2019-04-16 17:00:00 19.6 10 Sur 23 Sur 0 -- -- 61
2019-04-16 16:00:00 19.4 14 Sudoeste 24 Sudoeste 0 -- -- 61
2019-04-16 15:00:00 20.2 12 Sudoeste 22 Sudoeste 0 -- -- 57
2019-04-16 14:00:00 19.3 14 Sudoeste 29 Sudoeste 0 -- -- 60
2019-04-16 13:00:00 19.2 12 Sudoeste 20 Sudoeste 0 -- -- 58
2019-04-16 12:00:00 19.4 13 Sudoeste 20 Oeste 0 -- -- 55
2019-04-16 11:00:00 18.9 10 Sudoeste 16 Oeste 0 -- -- 60
2019-04-16 10:00:00 18.8 5 Sur 12 Sudoeste 0 -- -- 61
2019-04-16 09:00:00 15.4 6 Nordeste 17 Noroeste 0 -- -- 82
2019-04-16 08:00:00 12.1 6 Norte 26 Este 0 -- -- 89
2019-04-16 07:00:00 12.1 10 Este 17 Este 0 -- -- 88
2019-04-16 06:00:00 11.6 10 Norte 23 Nordeste 0 -- -- 87
2019-04-16 05:00:00 12 11 Nordeste 27 Nordeste 0 -- -- 83
2019-04-16 04:00:00 10.9 11 Norte 17 Norte 0 -- -- 83
2019-04-16 03:00:00 11 10 Nordeste 17 Nordeste 0 -- -- 82
2019-04-16 02:00:00 11 12 Nordeste 19 Nordeste 0 -- -- 81
2019-04-16 01:00:00 10.7 13 Nordeste 18 Nordeste 0 -- -- 76
2019-04-16 00:00:00 11.8 12 Este 22 Este 0 -- -- 73
2019-04-15 23:00:00 12.1 12 Este 24 Este 0 -- -- 71
2019-04-15 22:00:00 13.1 14 Este 26 Este 0 -- -- 66
2019-04-15 21:00:00 13.7 14 Este 29 Este 0 -- -- 57
2019-04-15 20:00:00 15.6 22 Este 33 Este 0 -- -- 43
2019-04-15 19:00:00 16.7 23 Este 33 Este 0 -- -- 38
2019-04-15 18:00:00 18.1 20 Sudeste 36 Este 0 -- -- 30
2019-04-15 17:00:00 19 21 Sudeste 38 Este 0 -- -- 33
2019-04-15 16:00:00 18.9 22 Sudeste 41 Este 0 -- -- 32
2019-04-15 15:00:00 18.5 23 Sudeste 40 Sudeste 0 -- -- 35
2019-04-15 14:00:00 19.9 19 Sudeste 44 Sudeste -- -- -- 35
2019-04-15 13:00:00 18.6 25 Este 36 Sudeste 0 -- -- 41
2019-04-15 12:00:00 19.4 19 Sudeste 33 Este 0 -- -- 43
2019-04-15 11:00:00 18.9 20 Sudeste 37 Este 0 -- -- 43
2019-04-15 10:00:00 17.7 20 Este 29 Este 0 -- -- 53
2019-04-15 09:00:00 16.2 15 Este 26 Este 0 -- -- 61
2019-04-15 08:00:00 12.3 13 Este 21 Este 0 -- -- 75
2019-04-15 07:00:00 10.8 15 Este 22 Este 0 -- -- 75
2019-04-15 06:00:00 10.9 14 Este 21 Este 0 -- -- 76
2019-04-15 05:00:00 10.9 14 Nordeste 21 Nordeste 0 -- -- 78
2019-04-15 04:00:00 11.6 14 Este 23 Este 0 -- -- 77
2019-04-15 03:00:00 12 14 Este 28 Este 0 -- -- 78
2019-04-15 02:00:00 12.2 14 Este 23 Este 0 -- -- 86
2019-04-15 01:00:00 12.2 13 Nordeste 18 Nordeste 0 -- -- 89
2019-04-15 00:00:00 12.5 11 Nordeste 18 Este 0 -- -- 90
2019-04-14 23:00:00 13.1 12 Este 18 Este 0 -- -- 89
2019-04-14 22:00:00 13.8 12 Este 17 Este 0 -- -- 86
2019-04-14 21:00:00 14.6 10 Sudeste 18 Sudeste 0 -- -- 79
2019-04-14 20:00:00 16.3 13 Sudeste 21 Sudeste 0 -- -- 70
2019-04-14 19:00:00 19.5 10 Oeste 24 Oeste 0 -- -- 50
2019-04-14 18:00:00 19.5 9 Oeste 26 Oeste 0 -- -- 57
2019-04-14 17:00:00 20.3 14 Oeste 25 Sudoeste 0 -- -- 55
2019-04-14 16:00:00 19.9 16 Oeste 27 Oeste 0 -- -- 59
2019-04-14 15:00:00 18.5 16 Oeste 30 Sudoeste 0 -- -- 65
2019-04-14 14:00:00 19.3 19 Oeste 32 Sudoeste 0 -- -- 64
2019-04-14 13:00:00 19.3 20 Oeste 32 Oeste 0 -- -- 70
2019-04-14 12:00:00 19.5 16 Oeste 28 Sudoeste 0 -- -- 75
2019-04-14 11:00:00 18.4 18 Oeste 28 Oeste 0 -- -- 82
2019-04-14 10:00:00 17.7 15 Sudoeste 26 Sudoeste 0 -- -- 91
2019-04-14 09:00:00 16.3 15 Sudoeste 24 Sudoeste 0 -- -- 92
2019-04-14 08:00:00 13.8 12 Sudoeste 19 Sudoeste 0 -- -- 97
2019-04-14 07:00:00 12.5 8 Sudoeste 12 Sudoeste 0 -- -- 97
2019-04-14 06:00:00 12.4 6 Sudoeste 10 Sudoeste 0 -- -- 96
2019-04-14 05:00:00 12.8 6 Sudoeste 11 Sudoeste 0 -- -- 95
2019-04-14 04:00:00 13 7 Sudoeste 14 Oeste 0 -- -- 94
2019-04-14 03:00:00 13.2 10 Oeste 26 Oeste 0 -- -- 93
2019-04-14 02:00:00 13.8 14 Oeste 27 Oeste 0 -- -- 92
2019-04-14 01:00:00 13.4 11 Oeste 21 Oeste 0 -- -- 92
2019-04-14 00:00:00 13.2 11 Oeste 17 Sudoeste 0 -- -- 91
2019-04-13 23:00:00 13.3 9 Sudoeste 17 Oeste 0 -- -- 89
2019-04-13 22:00:00 13.5 10 Oeste 17 Oeste 0 -- -- 88
2019-04-13 21:00:00 13.9 9 Oeste 18 Oeste 0 -- -- 84
2019-04-13 20:00:00 15.7 11 Oeste 23 Oeste 0 -- -- 74
2019-04-13 19:00:00 17.6 16 Sudoeste 28 Sudoeste 0 -- -- 69
2019-04-13 18:00:00 18.6 19 Oeste 29 Oeste 0 -- -- 63
2019-04-13 17:00:00 19.2 17 Oeste 30 Oeste 0 -- -- 62
2019-04-13 16:00:00 18.6 21 Oeste 30 Sudoeste 0 -- -- 65
2019-04-13 15:00:00 18.3 18 Oeste 29 Oeste 0 -- -- 64
2019-04-13 14:00:00 18.6 17 Oeste 26 Sudoeste 0 -- -- 62
2019-04-13 13:00:00 19 15 Sudoeste 22 Oeste 0 -- -- 62
2019-04-13 12:00:00 18.8 12 Oeste 20 Sudoeste 0 -- -- 64
2019-04-13 11:00:00 18.5 11 Sudoeste 17 Sudoeste 0 -- -- 67
2019-04-13 10:00:00 17.9 9 Oeste 12 Oeste 0 -- -- 71
2019-04-13 09:00:00 16.9 3 Sudoeste 6 Sudoeste 0 -- -- 85
2019-04-13 08:00:00 12.1 4 Sur 7 Sur 0 -- -- 91
2019-04-13 07:00:00 11 6 Sudoeste 9 Sudoeste 0 -- -- 90
2019-04-13 06:00:00 10.9 5 Sudoeste 7 Sudoeste 0 -- -- 89
2019-04-13 05:00:00 10.8 5 Oeste 9 Oeste 0 -- -- 87
2019-04-13 04:00:00 10 5 Noroeste 6 Noroeste 0 -- -- 85
2019-04-13 03:00:00 9.6 4 Norte 6 Nordeste 0 -- -- 83
2019-04-13 02:00:00 9.8 3 Nordeste 8 Nordeste 0 -- -- 83
2019-04-13 01:00:00 10 8 Nordeste 11 Nordeste 0 -- -- 82
2019-04-13 00:00:00 9.4 9 Nordeste 10 Nordeste 0 -- -- 81
2019-04-12 23:00:00 12.3 5 Sur 10 Sur 0 -- -- 78
2019-04-12 22:00:00 12.6 5 Sur 10 Sur 0 -- -- 74
2019-04-12 21:00:00 13.3 8 Sur 15 Sur 0 -- -- 70
2019-04-12 20:00:00 15.1 10 Sur 22 Sur 0 -- -- 60
2019-04-12 19:00:00 17.3 11 Sudoeste 19 Sur 0 -- -- 52
2019-04-12 18:00:00 17.6 14 Sur 27 Sur 0 -- -- 52
2019-04-12 17:00:00 18.1 15 Sudeste 26 Sudeste 0 -- -- 49
2019-04-12 16:00:00 17.9 16 Sudeste 30 Sudeste 0 -- -- 48
2019-04-12 15:00:00 17.9 17 Sudeste 30 Sur 0 -- -- 46
2019-04-12 14:00:00 17.8 19 Sudeste 34 Sudeste 0 -- -- 51
2019-04-12 13:00:00 18.4 19 Sur 26 Sur 0 -- -- 47
2019-04-12 12:00:00 19.1 11 Sur 19 Sudeste 0 -- -- 45
2019-04-12 11:00:00 19 10 Norte 25 Este 0 -- -- 45
2019-04-12 10:00:00 16.9 9 Nordeste 21 Nordeste 0 -- -- 53
2019-04-12 09:00:00 14.1 5 Norte 10 Norte 0 -- -- 75
2019-04-12 08:00:00 13.1 3 Nordeste 9 Norte 0 -- -- 74
2019-04-12 07:00:00 12.6 7 Noroeste 13 Noroeste 0 -- -- 79
2019-04-12 06:00:00 12.6 6 Noroeste 14 Noroeste 0 -- -- 78
2019-04-12 05:00:00 12.4 8 Noroeste 15 Noroeste 0 -- -- 82
2019-04-12 04:00:00 12.6 9 Noroeste 28 Oeste 0 -- -- 83
2019-04-12 03:00:00 13.5 20 Noroeste 32 Oeste 0 -- -- 83
2019-04-12 02:00:00 13.3 17 Oeste 30 Oeste 0 -- -- 81
2019-04-12 01:00:00 13 15 Noroeste 30 Oeste 0 -- -- 78
2019-04-12 00:00:00 13.3 16 Oeste 27 Oeste 0 -- -- 79
2019-04-11 23:00:00 12.9 11 Oeste 27 Oeste 0 -- -- 76
2019-04-11 22:00:00 13.4 16 Oeste 33 Oeste 0 -- -- 74
2019-04-11 21:00:00 13 15 Oeste 27 Oeste 0 -- -- 72
2019-04-11 20:00:00 14.2 14 Oeste 26 Noroeste 0 -- -- 68
2019-04-11 19:00:00 16.2 16 Oeste 30 Oeste 0 -- -- 62
2019-04-11 18:00:00 16.5 22 Oeste 38 Oeste 0 -- -- 62
2019-04-11 17:00:00 16.9 23 Oeste 45 Oeste 0 -- -- 62
2019-04-11 16:00:00 16.5 28 Oeste 45 Oeste 0 -- -- 64
2019-04-11 15:00:00 17 22 Oeste 39 Oeste 0 -- -- 64
2019-04-11 14:00:00 17.1 21 Oeste 36 Oeste 0 -- -- 66
2019-04-11 13:00:00 16.9 18 Oeste 27 Oeste 0 -- -- 68
2019-04-11 12:00:00 17.1 13 Oeste 24 Oeste 0 -- -- 67
2019-04-11 11:00:00 15.9 12 Oeste 23 Oeste 0 -- -- 65
2019-04-11 10:00:00 15.4 10 Noroeste 19 Norte 0 -- -- 70
2019-04-11 09:00:00 13.9 14 Noroeste 23 Noroeste 0 -- -- 74
2019-04-11 08:00:00 12.8 13 Noroeste 22 Noroeste 0 -- -- 74
2019-04-11 07:00:00 11.9 12 Noroeste 19 Noroeste 0 -- -- 73
2019-04-11 06:00:00 11 9 Noroeste 13 Noroeste 0 -- -- 74
2019-04-11 05:00:00 11.4 8 Oeste 13 Noroeste 0 -- -- 76
2019-04-11 04:00:00 10.8 9 Oeste 13 Noroeste 0 -- -- 76
2019-04-11 03:00:00 11.3 8 Noroeste 20 Oeste 0 -- -- 75
2019-04-11 02:00:00 12.7 15 Oeste 23 Noroeste 0 -- -- 75
2019-04-11 01:00:00 12.3 11 Oeste 18 Oeste 0 -- -- 76
2019-04-11 00:00:00 12.5 13 Noroeste 21 Oeste 0 -- -- 78
2019-04-10 23:00:00 12.8 13 Oeste 23 Oeste 0 -- -- 75
2019-04-10 22:00:00 13 14 Noroeste 26 Oeste 0 -- -- 74
2019-04-10 21:00:00 13.1 15 Oeste 27 Oeste 0 -- -- 72
2019-04-10 20:00:00 14.5 15 Oeste 31 Oeste 0 -- -- 67
2019-04-10 19:00:00 16.2 17 Oeste 33 Oeste 0 -- -- 58
2019-04-10 18:00:00 16.6 19 Oeste 36 Oeste 0 -- -- 59
2019-04-10 17:00:00 16.5 23 Oeste 33 Oeste 0 -- -- 61
2019-04-10 16:00:00 16.5 21 Oeste 33 Oeste 0 -- -- 61
2019-04-10 15:00:00 17 18 Oeste 28 Oeste 0 -- -- 63
2019-04-10 14:00:00 17.1 11 Oeste 27 Oeste 0 -- -- 66
2019-04-10 13:00:00 12.8 12 Oeste 19 Oeste 0 -- -- 86
2019-04-10 12:00:00 11.5 12 Noroeste 23 Noroeste 0.8 -- -- 84
2019-04-10 11:00:00 16.2 10 Oeste 17 Oeste 0 -- -- 81
2019-04-10 10:00:00 12 5 Norte 12 Noroeste 0.2 -- -- 90
2019-04-10 09:00:00 10 8 Noroeste 17 Noroeste 0 -- -- 90
2019-04-10 08:00:00 9.7 11 Norte 29 Noroeste 1.8 -- -- 87
2019-04-10 07:00:00 10.9 23 Noroeste 37 Noroeste 0.4 -- -- 75
2019-04-10 06:00:00 12.9 17 Noroeste 25 Noroeste 0 -- -- 81
2019-04-10 05:00:00 12.8 10 Oeste 26 Sudoeste 0 -- -- 80
2019-04-10 04:00:00 13 18 Oeste 40 Oeste 0 -- -- 76
2019-04-10 03:00:00 13.3 20 Oeste 42 Oeste 0 -- -- 74
2019-04-10 02:00:00 13.7 21 Oeste 42 Oeste 0 -- -- 72
2019-04-10 01:00:00 13.8 18 Oeste 40 Oeste 0 -- -- 70
2019-04-10 00:00:00 13.9 20 Oeste 45 Oeste 0 -- -- 68
2019-04-09 23:00:00 13.9 25 Oeste 45 Oeste 0 -- -- 73
2019-04-09 22:00:00 14.2 19 Sudoeste 37 Oeste 0 -- -- 75
2019-04-09 21:00:00 14.1 15 Sudoeste 28 Sudoeste 0 -- -- 72
2019-04-09 20:00:00 15.5 12 Sudoeste 25 Oeste 0 -- -- 65
2019-04-09 19:00:00 17.3 13 Oeste 26 Oeste 0 -- -- 58
2019-04-09 18:00:00 17.9 17 Oeste 35 Sudoeste 0 -- -- 58
2019-04-09 17:00:00 17.4 21 Oeste 38 Oeste 0 -- -- 60
2019-04-09 16:00:00 17.8 22 Oeste 42 Noroeste 0 -- -- 57
2019-04-09 15:00:00 17.9 24 Oeste 43 Oeste 0 -- -- 55
2019-04-09 14:00:00 17.9 23 Oeste 41 Oeste 0 -- -- 61
2019-04-09 13:00:00 17.8 22 Oeste 37 Oeste 0 -- -- 68
2019-04-09 12:00:00 17.2 22 Oeste 40 Oeste 0 -- -- 72
2019-04-09 11:00:00 17.6 21 Oeste 34 Oeste 0 -- -- 69
2019-04-09 10:00:00 16.7 19 Oeste 41 Oeste 0 -- -- 77
2019-04-09 09:00:00 16 20 Oeste 35 Oeste 0 -- -- 82
2019-04-09 08:00:00 14.3 21 Oeste 36 Oeste 0 -- -- 96
2019-04-09 07:00:00 13 16 Sudoeste 30 Sudoeste 0 -- -- 97
2019-04-09 06:00:00 12.9 6 Sur 10 Sur 0 -- -- 96
2019-04-09 05:00:00 13 6 Sur 8 Sur 0 -- -- 96
2019-04-09 04:00:00 12.9 5 Sur 7 Sur 0 -- -- 95
2019-04-09 03:00:00 13 5 Sur 8 Sur 0 -- -- 95
2019-04-09 02:00:00 13.3 5 Sudoeste 9 Sudoeste 0 -- -- 94
2019-04-09 01:00:00 13.3 5 Oeste 10 Sudoeste 0 -- -- 93
2019-04-09 00:00:00 13.6 6 Sudoeste 11 Sudoeste 0 -- -- 92
2019-04-08 23:00:00 13.7 8 Sudoeste 15 Sudoeste 0 -- -- 91
2019-04-08 22:00:00 13.8 7 Oeste 13 Oeste 0 -- -- 88
2019-04-08 21:00:00 14 8 Oeste 16 Oeste 0 -- -- 84
2019-04-08 20:00:00 15.6 10 Oeste 19 Oeste 0 -- -- 74
2019-04-08 19:00:00 17.2 9 Oeste 21 Oeste 0 -- -- 69
2019-04-08 18:00:00 18.7 13 Oeste 25 Sudoeste 0 -- -- 65
2019-04-08 17:00:00 19 14 Oeste 33 Oeste 0 -- -- 66
2019-04-08 16:00:00 17.9 20 Oeste 34 Oeste 0 -- -- 67
2019-04-08 15:00:00 19.3 18 Sudoeste 29 Sudoeste 0 -- -- 67
2019-04-08 14:00:00 19.5 12 Sudoeste 29 Sudoeste 0 -- -- 65
2019-04-08 13:00:00 17.5 14 Sudoeste 24 Oeste 0 -- -- 67
2019-04-08 12:00:00 16.6 10 Oeste 19 Sudoeste 0 -- -- 69
2019-04-08 11:00:00 17.2 11 Sudoeste 20 Sudoeste 0 -- -- 68
2019-04-08 10:00:00 17.9 13 Oeste 22 Sudoeste 0 -- -- 76
2019-04-08 09:00:00 13.4 6 Sudoeste 10 Sudoeste 0 -- -- 91
2019-04-08 08:00:00 11.6 4 Sudeste 9 Sur 0 -- -- 91
2019-04-08 07:00:00 10.8 6 Sudeste 9 Sur 0 -- -- 89
2019-04-08 06:00:00 9.3 6 Este 10 Este 0 -- -- 88
2019-04-08 05:00:00 9.9 6 Este 8 Este 0 -- -- 86
2019-04-08 04:00:00 11.3 4 Sudeste 6 Sudoeste 0 -- -- 83
2019-04-08 03:00:00 11.4 5 Sudoeste 8 Sur 0 -- -- 83
2019-04-08 02:00:00 11.2 5 Sudoeste 9 Sudoeste 0 -- -- 81
2019-04-08 01:00:00 11.3 5 Sudoeste 11 Sudoeste 0 -- -- 77
2019-04-08 00:00:00 11.3 5 Noroeste 15 Oeste 0 -- -- 73
2019-04-07 23:00:00 12 9 Oeste 18 Oeste 0 -- -- 69
2019-04-07 22:00:00 12.4 12 Oeste 21 Oeste 0 -- -- 65
2019-04-07 21:00:00 12.5 13 Oeste 30 Noroeste 0 -- -- 63
2019-04-07 20:00:00 13.6 18 Oeste 28 Oeste 0 -- -- 58
2019-04-07 19:00:00 15.5 20 Noroeste 44 Oeste 0 -- -- 52
2019-04-07 18:00:00 16.3 21 Noroeste 40 Noroeste 0 -- -- 48
2019-04-07 17:00:00 16.2 25 Oeste 40 Oeste 0 -- -- 49
2019-04-07 16:00:00 16 25 Oeste 42 Oeste 0 -- -- 53
2019-04-07 15:00:00 16.3 21 Oeste 41 Sudoeste 0 -- -- 52
2019-04-07 14:00:00 13 27 Oeste 48 Oeste 0 -- -- 62
2019-04-07 13:00:00 14.5 18 Oeste 32 Oeste 0 -- -- 61
2019-04-07 12:00:00 14.4 14 Oeste 26 Oeste 0 -- -- 72
2019-04-07 11:00:00 10.5 12 Noroeste 60 Oeste 0.6 -- -- 80
2019-04-07 10:00:00 9.8 23 Oeste 44 Oeste 0.4 -- -- 76
2019-04-07 09:00:00 9.3 21 Noroeste 39 Noroeste 0.4 -- -- 73
2019-04-07 08:00:00 11.1 14 Noroeste 43 Oeste 0 -- -- 65
2019-04-07 07:00:00 12 27 Oeste 46 Oeste 0 -- -- 72
2019-04-07 06:00:00 12.1 24 Oeste 46 Oeste 0 -- -- 72
2019-04-07 05:00:00 12.1 25 Oeste 48 Oeste 0 -- -- 70
2019-04-07 04:00:00 12.7 23 Oeste 43 Oeste 0 -- -- 65
2019-04-07 03:00:00 12.9 23 Oeste 44 Oeste 0 -- -- 69
2019-04-07 02:00:00 13.2 25 Oeste 44 Oeste 0 -- -- 65
2019-04-07 01:00:00 12.9 23 Oeste 40 Oeste 0 -- -- 70
2019-04-07 00:00:00 13.1 26 Oeste 44 Oeste 0 -- -- 66
2019-04-06 23:00:00 12.7 17 Oeste 38 Sudoeste 0 -- -- 64
2019-04-06 22:00:00 12.8 14 Sudoeste 34 Oeste 0 -- -- 67
2019-04-06 21:00:00 13.1 22 Oeste 45 Sudoeste 0 -- -- 62
2019-04-06 20:00:00 13.7 20 Sudoeste 41 Oeste 0 -- -- 60
2019-04-06 19:00:00 13.9 25 Sudoeste 46 Sudoeste 0 -- -- 58
2019-04-06 18:00:00 14.8 22 Oeste 43 Oeste 0 -- -- 55
2019-04-06 17:00:00 16.7 24 Oeste 41 Oeste 0 -- -- 46
2019-04-06 16:00:00 15.5 26 Oeste 47 Oeste 0 -- -- 48
2019-04-06 15:00:00 15.1 29 Oeste 50 Oeste 0 -- -- 49
2019-04-06 14:00:00 14.9 26 Oeste 44 Oeste 0 -- -- 53
2019-04-06 13:00:00 14.5 25 Oeste 46 Oeste 0 -- -- 54
2019-04-06 12:00:00 14 25 Oeste 43 Oeste 0 -- -- 59
2019-04-06 11:00:00 13.1 23 Oeste 49 Oeste 0 -- -- 60
2019-04-06 10:00:00 13.4 24 Oeste 55 Noroeste 0 -- -- 61
2019-04-06 09:00:00 12.5 30 Oeste 63 Oeste 0 -- -- 62
2019-04-06 08:00:00 12.2 30 Oeste 56 Oeste 0 -- -- 61
2019-04-06 07:00:00 11.9 32 Oeste 68 Oeste 0 -- -- 64
2019-04-06 06:00:00 11.7 32 Oeste 52 Oeste 0 -- -- 69
2019-04-06 05:00:00 10.7 26 Oeste 45 Sudoeste 0 -- -- 82
2019-04-06 04:00:00 9.4 16 Oeste 33 Oeste 0 -- -- 89
2019-04-06 03:00:00 9.3 20 Noroeste 57 Oeste 2 -- -- 86
2019-04-06 02:00:00 12.8 14 Sudoeste 32 Sudoeste 0 -- -- 81
2019-04-06 01:00:00 12.3 14 Sudoeste 26 Sudoeste 0 -- -- 86
2019-04-06 00:00:00 11.5 10 Oeste 19 Oeste 0 -- -- 87
2019-04-05 23:00:00 12.1 11 Oeste 42 Sur 0.2 -- -- 84
2019-04-05 22:00:00 13.8 21 Sudoeste 44 Sudoeste 0.2 -- -- 83
2019-04-05 21:00:00 14.1 17 Sudoeste 39 Sudoeste 0 -- -- 79
2019-04-05 20:00:00 14.2 22 Sur 40 Sur 0 -- -- 76
2019-04-05 19:00:00 14.6 24 Sur 39 Sur 0 -- -- 74
2019-04-05 18:00:00 16.3 24 Sur 41 Sur 0.2 -- -- 69
2019-04-05 17:00:00 15.5 24 Sur 42 Sudeste 0 -- -- 71
2019-04-05 16:00:00 15.8 23 Sur 37 Sudeste 0 -- -- 67
2019-04-05 15:00:00 16 22 Sur 39 Sur 0 -- -- 66
2019-04-05 14:00:00 16.7 23 Sur 30 Sur 0 -- -- 60
2019-04-05 13:00:00 17 18 Sur 34 Sur 0 -- -- 58
2019-04-05 12:00:00 17.6 14 Sur 25 Sudoeste 0 -- -- 50
2019-04-05 11:00:00 17.2 13 Sur 22 Sur 0 -- -- 49
2019-04-05 10:00:00 16.2 11 Sur 18 Sur 0 -- -- 51
2019-04-05 09:00:00 13.7 5 Sudeste 9 Sudeste 0 -- -- 66
2019-04-05 08:00:00 8.3 5 Este 11 Sur 0 -- -- 77
2019-04-05 07:00:00 8 5 Sur 9 Sur 0 -- -- 81
2019-04-05 06:00:00 8.3 4 Norte 10 Sudoeste 0 -- -- 74
2019-04-05 05:00:00 9.1 7 Sudoeste 13 Sur 0 -- -- 70
2019-04-05 04:00:00 8.9 6 Sur 10 Sur 0 -- -- 78
2019-04-05 03:00:00 8.8 5 Sudoeste 10 Sur 0 -- -- 80
2019-04-05 02:00:00 7.1 5 Sudeste 13 Este 0 -- -- 77
2019-04-05 01:00:00 7.4 6 Nordeste 11 Nordeste 0 -- -- 75
2019-04-05 00:00:00 7.6 6 Nordeste 11 Nordeste 0 -- -- 73
2019-04-04 23:00:00 8.3 7 Nordeste 12 Este 0 -- -- 71
2019-04-04 22:00:00 8.8 8 Nordeste 13 Nordeste 0 -- -- 60
2019-04-04 21:00:00 9.9 9 Oeste 12 Oeste 0 -- -- 62
2019-04-04 20:00:00 12.8 7 Noroeste 23 Oeste 0 -- -- 51
2019-04-04 19:00:00 14.3 16 Oeste 35 Oeste 0 -- -- 47
2019-04-04 18:00:00 16.5 14 Oeste 24 Oeste 0 -- -- 38
2019-04-04 17:00:00 16.8 14 Oeste 29 Oeste 0 -- -- 36
2019-04-04 16:00:00 15.6 17 Oeste 29 Oeste 0 -- -- 36
2019-04-04 15:00:00 15.7 17 Noroeste 32 Noroeste 0 -- -- 33
2019-04-04 14:00:00 14.9 19 Noroeste 37 Noroeste 0 -- -- 37
2019-04-04 13:00:00 14.9 22 Noroeste 38 Noroeste 0 -- -- 45
2019-04-04 12:00:00 14.4 23 Noroeste 42 Noroeste 0 -- -- 44
2019-04-04 11:00:00 13.4 21 Noroeste 40 Noroeste 0 -- -- 49
2019-04-04 10:00:00 11.6 18 Noroeste 31 Noroeste 0 -- -- 60
2019-04-04 09:00:00 11.6 13 Noroeste 26 Noroeste 0 -- -- 69
2019-04-04 08:00:00 9.3 10 Noroeste 18 Noroeste 0 -- -- 82
2019-04-04 07:00:00 9 8 Noroeste 13 Noroeste 0 -- -- 88
2019-04-04 06:00:00 8.8 6 Norte 8 Norte 0 -- -- 90
2019-04-04 05:00:00 9.4 6 Nordeste 14 Nordeste 0 -- -- 90
2019-04-04 04:00:00 9.4 11 Norte 21 Nordeste 0 -- -- 90
2019-04-04 03:00:00 9.7 11 Nordeste 33 Nordeste 0.6 -- -- 88
2019-04-04 02:00:00 11.1 19 Nordeste 34 Nordeste 0 -- -- 82
2019-04-04 01:00:00 12.2 12 Nordeste 27 Norte 0 -- -- 82
2019-04-04 00:00:00 12.2 16 Norte 31 Norte 0 -- -- 89
2019-04-03 23:00:00 13.2 4 Noroeste 10 Noroeste 0 -- -- 91
2019-04-03 22:00:00 14.1 4 Oeste 14 Oeste 0 -- -- 90
2019-04-03 21:00:00 14.5 6 Sur 18 Sur 0 -- -- 89
2019-04-03 20:00:00 14.6 11 Sur 19 Sur 0 -- -- 87
2019-04-03 19:00:00 15.7 7 Sudoeste 15 Sudoeste 0 -- -- 84
2019-04-03 18:00:00 15.8 9 Sudoeste 23 Sudoeste 0 -- -- 84
2019-04-03 17:00:00 16.4 12 Sudoeste 23 Sur 0 -- -- 82
2019-04-03 16:00:00 17.4 15 Sur 29 Sudoeste 0 -- -- 79
2019-04-03 15:00:00 16.8 15 Sur 26 Sur 0 -- -- 80
2019-04-03 14:00:00 17.1 16 Sur 27 Sur 0 -- -- 80
2019-04-03 13:00:00 17.2 15 Sur 22 Sur 0 -- -- 79
2019-04-03 12:00:00 16.9 14 Sur 25 Sur 0 -- -- 80
2019-04-03 11:00:00 16.2 13 Sur 21 Sur 0 -- -- 81
2019-04-03 10:00:00 15.5 12 Sudoeste 22 Sur 0 -- -- 85
2019-04-03 09:00:00 14.2 12 Sur 21 Sudoeste 0 -- -- 89
2019-04-03 08:00:00 13.7 10 Sur 19 Sur 0 -- -- 91
2019-04-03 07:00:00 13.7 10 Sur 19 Sudoeste 0 -- -- 91
2019-04-03 06:00:00 13.7 11 Sudoeste 19 Sur 0 -- -- 91
2019-04-03 05:00:00 13.8 10 Sur 18 Sur 0 -- -- 90
2019-04-03 04:00:00 13.7 8 Sur 14 Sur 0 -- -- 90
2019-04-03 03:00:00 13.9 8 Sudoeste 16 Sur 0 -- -- 90
2019-04-03 02:00:00 13.7 9 Sudoeste 18 Sudoeste 0 -- -- 91
2019-04-03 01:00:00 13.2 6 Sudoeste 13 Sudoeste 0 -- -- 91
2019-04-03 00:00:00 13.6 8 Sudoeste 18 Sudoeste 0 -- -- 90
2019-04-02 23:00:00 14.1 8 Sudoeste 17 Sudoeste 0 -- -- 89
2019-04-02 22:00:00 13.7 8 Sudoeste 13 Sudoeste 0 -- -- 89
2019-04-02 21:00:00 13.3 5 Sudoeste 11 Sudoeste 0 -- -- 86
2019-04-02 20:00:00 14.7 6 Sudoeste 14 Sudoeste 0 -- -- 82
2019-04-02 19:00:00 15.6 10 Sudoeste 18 Sudoeste 0 -- -- 78
2019-04-02 18:00:00 16.5 11 Sudoeste 21 Sudoeste 0 -- -- 73
2019-04-02 17:00:00 18.2 13 Sudoeste 22 Sudoeste 0 -- -- 71
2019-04-02 16:00:00 18.5 13 Sudoeste 19 Sudoeste 0 -- -- 69
2019-04-02 15:00:00 18.6 13 Sudoeste 22 Sudoeste 0 -- -- 66
2019-04-02 14:00:00 18.5 14 Sudoeste 22 Sudoeste 0 -- -- 67
2019-04-02 13:00:00 18.5 12 Sudoeste 21 Oeste 0 -- -- 70
2019-04-02 12:00:00 17.3 14 Oeste 22 Sudoeste 0 -- -- 73
2019-04-02 11:00:00 17 12 Sudoeste 22 Sudoeste 0 -- -- 73
2019-04-02 10:00:00 15.7 11 Sudoeste 17 Sur 0 -- -- 84
2019-04-02 09:00:00 14.7 6 Sudoeste 13 Sudoeste 0 -- -- 90
2019-04-02 08:00:00 12.5 8 Sudoeste 14 Oeste 0 -- -- 92
2019-04-02 07:00:00 11.8 8 Oeste 14 Sudoeste 0 -- -- 91
2019-04-02 06:00:00 11.7 6 Oeste 10 Oeste 0 -- -- 91
2019-04-02 05:00:00 11.9 6 Oeste 12 Oeste 0 -- -- 89
2019-04-02 04:00:00 11.5 7 Oeste 12 Oeste 0 -- -- 87
2019-04-02 03:00:00 11.8 8 Oeste 12 Oeste 0 -- -- 84
2019-04-02 02:00:00 12.4 7 Noroeste 16 Noroeste 0 -- -- 82
2019-04-02 01:00:00 13.4 10 Oeste 17 Oeste 0 -- -- 80
2019-04-02 00:00:00 13.4 7 Oeste 14 Noroeste 0 -- -- 81
2019-04-01 23:00:00 12.9 8 Oeste 14 Oeste 0 -- -- 84
2019-04-01 22:00:00 12.8 6 Sudoeste 9 Sudoeste 0 -- -- 83
2019-04-01 21:00:00 13.2 3 Sudoeste 5 Sudoeste 0 -- -- 81
2019-04-01 20:00:00 14 5 Sudoeste 10 Sudoeste 0 -- -- 79
2019-04-01 19:00:00 14.9 7 Sudoeste 14 Sur 0 -- -- 76
2019-04-01 18:00:00 15.6 9 Sur 15 Sur 0 -- -- 74
2019-04-01 17:00:00 15.4 12 Sur 17 Sur 0 -- -- 73
2019-04-01 16:00:00 16.7 11 Sur 19 Sur 0 -- -- 68
2019-04-01 15:00:00 17.9 10 Sudoeste 17 Sudoeste 0 -- -- 60
2019-04-01 14:00:00 18.2 6 Este 18 Este 0 -- -- 58
2019-04-01 13:00:00 15.4 8 Nordeste 19 Este 0 -- -- 70
2019-04-01 12:00:00 13.9 11 Nordeste 18 Nordeste 0 -- -- 77
2019-04-01 11:00:00 13.6 8 Nordeste 18 Nordeste 0 -- -- 85
2019-04-01 10:00:00 12.9 9 Nordeste 20 Nordeste 0 -- -- 90
2019-04-01 09:00:00 12.1 9 Nordeste 19 Nordeste 0 -- -- 92
2019-04-01 08:00:00 11.8 12 Nordeste 24 Nordeste 0 -- -- 93
2019-04-01 07:00:00 11.9 15 Nordeste 23 Nordeste 0 -- -- 93
2019-04-01 06:00:00 12 15 Nordeste 28 Nordeste 0 -- -- 93
2019-04-01 05:00:00 11.9 18 Nordeste 26 Nordeste 0 -- -- 94
2019-04-01 04:00:00 12 14 Nordeste 23 Nordeste 0 -- -- 94
2019-04-01 03:00:00 12.1 14 Nordeste 23 Nordeste 0 -- -- 94
2019-04-01 02:00:00 12.3 13 Nordeste 23 Nordeste 0 -- -- 94
2019-04-01 01:00:00 12.3 15 Nordeste 29 Nordeste 0 -- -- 94
2019-04-01 00:00:00 12.3 16 Nordeste 27 Nordeste 0.2 -- -- 93
2019-03-31 23:00:00 12.7 13 Este 27 Este 0.2 -- -- 92
2019-03-31 22:00:00 13.1 21 Este 32 Este 0 -- -- 91
2019-03-31 21:00:00 13.3 17 Nordeste 31 Este 0 -- -- 88
2019-03-31 20:00:00 14.1 16 Nordeste 29 Este 0 -- -- 84
2019-03-31 19:00:00 15.1 16 Este 32 Este 0 -- -- 80
2019-03-31 18:00:00 15.5 17 Este 30 Este 0 -- -- 79
2019-03-31 17:00:00 16.2 18 Este 37 Este 0 -- -- 75
2019-03-31 16:00:00 17.7 27 Sudeste 40 Este 0 -- -- 71
2019-03-31 15:00:00 16.8 24 Este 40 Este 0 -- -- 73
2019-03-31 14:00:00 16.6 26 Este 42 Sudeste 0 -- -- 72
2019-03-31 13:00:00 18 26 Este 44 Este 0 -- -- 67
2019-03-31 12:00:00 16.3 26 Este 44 Este 0 -- -- 71
2019-03-31 11:00:00 16 22 Este 36 Este 0 -- -- 73
2019-03-31 10:00:00 14.9 21 Este 36 Este 0 -- -- 83
2019-03-31 09:00:00 13.4 21 Nordeste 33 Nordeste 0 -- -- 92
2019-03-31 08:00:00 11.8 21 Nordeste 31 Este 0 -- -- 94
2019-03-31 07:00:00 11.4 18 Nordeste 27 Nordeste 0 -- -- 93
2019-03-31 06:00:00 11.3 17 Nordeste 25 Nordeste 0 -- -- 93
2019-03-31 05:00:00 11.2 14 Nordeste 22 Nordeste 0 -- -- 93
2019-03-31 03:00:00 10.8 14 Nordeste 21 Nordeste 0 -- -- 90
2019-03-31 01:00:00 10.9 13 Nordeste 20 Nordeste 0 -- -- 89
2019-03-31 00:00:00 11.5 15 Nordeste 23 Nordeste 0 -- -- 88
2019-03-30 23:00:00 11.2 13 Nordeste 19 Nordeste 0 -- -- 87
2019-03-30 22:00:00 11.3 10 Nordeste 19 Nordeste 0 -- -- 85
2019-03-30 21:00:00 12.3 13 Nordeste 28 Nordeste 0 -- -- 82
2019-03-30 20:00:00 13.4 9 Este 30 Este 0 -- -- 75
2019-03-30 19:00:00 14.5 16 Este 28 Este 0 -- -- 69
2019-03-30 18:00:00 16.7 17 Este 31 Este 0 -- -- 61
2019-03-30 17:00:00 17.9 15 Este 32 Este 0 -- -- 55
2019-03-30 16:00:00 19.2 14 Este 34 Este 0 -- -- 52
2019-03-30 15:00:00 18.2 21 Este 35 Este 0 -- -- 57
2019-03-30 14:00:00 18.2 19 Sudeste 35 Sudeste 0 -- -- 58
2019-03-30 13:00:00 17.8 19 Sudeste 32 Sudeste 0 -- -- 57
2019-03-30 12:00:00 18.2 15 Sudeste 29 Sudeste 0 -- -- 54
2019-03-30 11:00:00 18.1 13 Este 29 Este 0 -- -- 52
2019-03-30 10:00:00 16.8 14 Este 27 Este 0 -- -- 56
2019-03-30 09:00:00 15.8 12 Este 19 Nordeste 0 -- -- 61
2019-03-30 08:00:00 12.3 9 Nordeste 18 Nordeste 0 -- -- 75
2019-03-30 07:00:00 8.4 10 Nordeste 14 Nordeste 0 -- -- 81
2019-03-30 06:00:00 8.4 10 Norte 13 Norte 0 -- -- 80
2019-03-30 05:00:00 9.2 8 Norte 12 Norte 0 -- -- 79
2019-03-30 04:00:00 9.6 8 Norte 13 Nordeste 0 -- -- 79
2019-03-30 03:00:00 8.9 8 Norte 12 Norte 0 -- -- 83
2019-03-30 02:00:00 9 9 Norte 13 Nordeste 0 -- -- 84
2019-03-30 01:00:00 8.4 8 Nordeste 14 Nordeste 0 -- -- 83
2019-03-30 00:00:00 9.2 8 Nordeste 14 Nordeste 0 -- -- 80
2019-03-29 23:00:00 9.1 11 Nordeste 16 Nordeste 0 -- -- 78
2019-03-29 22:00:00 9.7 10 Nordeste 14 Nordeste 0 -- -- 74
2019-03-29 21:00:00 10.7 7 Nordeste 15 Nordeste 0 -- -- 71
2019-03-29 20:00:00 11.4 9 Nordeste 14 Nordeste 0 -- -- 71
2019-03-29 19:00:00 13.2 6 Sudoeste 16 Sur 0 -- -- 65
2019-03-29 18:00:00 15.5 10 Sur 19 Sur 0 -- -- 57
2019-03-29 17:00:00 17.2 10 Sur 19 Sur 0 -- -- 51
2019-03-29 16:00:00 16.7 12 Sur 23 Sur 0 -- -- 55
2019-03-29 15:00:00 16.3 13 Sur 27 Sudeste 0 -- -- 55
2019-03-29 14:00:00 14.1 18 Sudeste 31 Sudeste 0 -- -- 59
2019-03-29 13:00:00 16.2 19 Sudeste 32 Este 0 -- -- 56
2019-03-29 12:00:00 17 7 Sur 34 Este 0 -- -- 50
2019-03-29 11:00:00 17.7 15 Este 31 Nordeste 0 -- -- 40
2019-03-29 10:00:00 17.3 13 Nordeste 30 Nordeste 0 -- -- 46
2019-03-29 09:00:00 13.7 14 Este 21 Este 0 -- -- 68
2019-03-29 08:00:00 12.3 9 Este 13 Este 0 -- -- 63
2019-03-29 07:00:00 8.4 8 Norte 12 Norte 0 -- -- 69
2019-03-29 06:00:00 8 8 Nordeste 11 Nordeste 0 -- -- 61
2019-03-29 05:00:00 8.9 7 Norte 10 Norte 0 -- -- 63
2019-03-29 04:00:00 8.7 8 Norte 12 Nordeste 0 -- -- 62
2019-03-29 03:00:00 8.4 8 Nordeste 12 Nordeste 0 -- -- 59
2019-03-29 02:00:00 9.2 8 Norte 13 Norte 0 -- -- 68
2019-03-29 01:00:00 9.4 9 Norte 13 Norte 0 -- -- 69
2019-03-29 00:00:00 9.2 9 Norte 13 Norte 0 -- -- 70
2019-03-28 23:00:00 9.7 8 Norte 11 Norte 0 -- -- 66
2019-03-28 22:00:00 10.1 8 Norte 12 Nordeste 0 -- -- 69
2019-03-28 21:00:00 10.8 9 Nordeste 12 Nordeste 0 -- -- 72
2019-03-28 20:00:00 12.1 5 Nordeste 16 Sudoeste 0 -- -- 69
2019-03-28 19:00:00 13.7 9 Sur 22 Sur 0 -- -- 62
2019-03-28 18:00:00 16.2 13 Sudoeste 25 Sur 0 -- -- 59
2019-03-28 17:00:00 18.4 14 Sudoeste 24 Sur 0 -- -- 53
2019-03-28 16:00:00 18.2 10 Oeste 30 Nordeste 0 -- -- 48
2019-03-28 15:00:00 19.7 15 Nordeste 31 Norte 0 -- -- 28
2019-03-28 14:00:00 20.3 14 Nordeste 33 Nordeste 0 -- -- 28
2019-03-28 13:00:00 19.4 19 Nordeste 38 Norte 0 -- -- 27
2019-03-28 12:00:00 19.2 18 Nordeste 31 Nordeste 0 -- -- 34
2019-03-28 11:00:00 19 15 Nordeste 30 Nordeste 0 -- -- 35
2019-03-28 10:00:00 18.4 13 Nordeste 28 Nordeste 0 -- -- 36
2019-03-28 09:00:00 15.9 13 Nordeste 21 Nordeste 0 -- -- 41
2019-03-28 08:00:00 12.7 8 Norte 17 Norte 0 -- -- 67
2019-03-28 07:00:00 8.6 12 Norte 20 Norte 0 -- -- 75
2019-03-28 06:00:00 8.6 14 Norte 22 Nordeste 0 -- -- 73
2019-03-28 05:00:00 8.3 12 Nordeste 18 Nordeste 0 -- -- 70
2019-03-28 04:00:00 8.4 10 Nordeste 21 Nordeste 0 -- -- 67
2019-03-28 03:00:00 8.9 12 Nordeste 23 Nordeste 0 -- -- 61
2019-03-28 02:00:00 8.1 9 Norte 16 Norte 0 -- -- 53
2019-03-28 01:00:00 8.6 12 Norte 18 Norte 0 -- -- 58
2019-03-28 00:00:00 8.6 9 Norte 17 Norte 0 -- -- 66
2019-03-27 23:00:00 8.7 12 Norte 24 Norte 0 -- -- 69
2019-03-27 22:00:00 8.3 15 Norte 21 Norte 0 -- -- 72
2019-03-27 21:00:00 9.2 12 Nordeste 22 Nordeste 0 -- -- 70
2019-03-27 20:00:00 10 10 Nordeste 19 Nordeste 0 -- -- 65
2019-03-27 19:00:00 12.9 11 Nordeste 26 Nordeste 0 -- -- 44
2019-03-27 18:00:00 16.4 17 Nordeste 33 Nordeste 0 -- -- 31
2019-03-27 17:00:00 17.7 18 Nordeste 40 Nordeste 0 -- -- 28
2019-03-27 16:00:00 18.4 20 Nordeste 40 Nordeste 0 -- -- 26
2019-03-27 15:00:00 18 22 Nordeste 37 Nordeste 0 -- -- 32
2019-03-27 14:00:00 18.5 22 Nordeste 40 Nordeste 0 -- -- 28
2019-03-27 13:00:00 19.2 18 Nordeste 38 Este 0 -- -- 29
2019-03-27 12:00:00 18.4 21 Este 40 Este 0 -- -- 26
2019-03-27 11:00:00 17.7 17 Nordeste 33 Nordeste 0 -- -- 38
2019-03-27 10:00:00 16.4 17 Nordeste 34 Nordeste 0 -- -- 46
2019-03-27 09:00:00 14.4 20 Nordeste 33 Norte 0 -- -- 55
2019-03-27 08:00:00 12.2 19 Norte 32 Norte 0 -- -- 60
2019-03-27 07:00:00 8.6 11 Norte 23 Norte 0 -- -- 71
2019-03-27 06:00:00 9.3 15 Nordeste 26 Nordeste 0 -- -- 67
2019-03-27 05:00:00 8.4 10 Nordeste 20 Norte 0 -- -- 67
2019-03-27 04:00:00 8.4 6 Norte 12 Nordeste 0 -- -- 69
2019-03-27 03:00:00 8.1 10 Nordeste 18 Nordeste 0 -- -- 68
2019-03-27 02:00:00 7.6 9 Nordeste 15 Norte 0 -- -- 63
2019-03-27 01:00:00 8.6 8 Norte 12 Noroeste 0 -- -- 58
2019-03-27 00:00:00 8.2 8 Noroeste 11 Norte 0 -- -- 62
2019-03-26 23:00:00 7.9 8 Norte 10 Norte 0 -- -- 64
2019-03-26 22:00:00 8.1 5 Nordeste 9 Nordeste 0 -- -- 64
2019-03-26 21:00:00 8.8 7 Este 14 Nordeste 0 -- -- 62
2019-03-26 20:00:00 9.9 13 Nordeste 27 Nordeste 0 -- -- 58
2019-03-26 19:00:00 11.1 15 Nordeste 35 Nordeste 0 -- -- 55
2019-03-26 18:00:00 13.6 18 Nordeste 47 Nordeste 0 -- -- 49
2019-03-26 17:00:00 14.9 25 Nordeste 42 Norte 0 -- -- 41
2019-03-26 16:00:00 15.1 30 Norte 55 Norte 0 -- -- 33
2019-03-26 15:00:00 15.8 23 Nordeste 50 Nordeste 0 -- -- 33
2019-03-26 14:00:00 16.4 23 Nordeste 45 Norte 0 -- -- 32
2019-03-26 13:00:00 16.9 24 Nordeste 51 Norte 0 -- -- 31
2019-03-26 12:00:00 16.9 27 Nordeste 48 Nordeste 0 -- -- 24
2019-03-26 11:00:00 16.5 26 Nordeste 57 Norte 0 -- -- 24
2019-03-26 10:00:00 15.6 29 Nordeste 57 Nordeste 0 -- -- 26
2019-03-26 09:00:00 14.7 26 Nordeste 42 Nordeste 0 -- -- 29
2019-03-26 08:00:00 13 18 Nordeste 34 Nordeste 0 -- -- 58
2019-03-26 07:00:00 9.7 12 Nordeste 24 Nordeste 0 -- -- 84
2019-03-26 06:00:00 9.5 15 Nordeste 26 Nordeste 0 -- -- 87
2019-03-26 05:00:00 9.1 13 Nordeste 20 Nordeste 0 -- -- 88
2019-03-26 04:00:00 9.9 7 Nordeste 12 Este 0 -- -- 87
2019-03-26 03:00:00 10.1 8 Nordeste 17 Nordeste 0 -- -- 88
2019-03-26 02:00:00 9.4 12 Nordeste 20 Nordeste 0 -- -- 85
2019-03-26 01:00:00 10.3 10 Nordeste 14 Este 0 -- -- 83
2019-03-26 00:00:00 10.4 10 Este 18 Nordeste 0 -- -- 83
2019-03-25 23:00:00 9.9 7 Nordeste 13 Nordeste 0 -- -- 81
2019-03-25 22:00:00 10.8 8 Nordeste 13 Este 0 -- -- 77
2019-03-25 21:00:00 11.9 13 Este 19 Este 0 -- -- 74
2019-03-25 20:00:00 13.1 13 Este 23 Este 0 -- -- 72
2019-03-25 19:00:00 14.8 13 Sudeste 24 Sudeste 0 -- -- 61
2019-03-25 18:00:00 17.4 15 Sudeste 27 Sudeste 0 -- -- 49
2019-03-25 17:00:00 18.7 18 Sudeste 29 Sudeste 0 -- -- 43
2019-03-25 16:00:00 19.7 18 Sudeste 31 Este 0 -- -- 44
2019-03-25 15:00:00 21.2 8 Oeste 19 Sudoeste 0 -- -- 47
2019-03-25 14:00:00 20.7 10 Oeste 18 Sudoeste 0 -- -- 52
2019-03-25 13:00:00 20 10 Sudoeste 30 Este 0 -- -- 54
2019-03-25 12:00:00 21.9 21 Este 37 Este 0 -- -- 31
2019-03-25 11:00:00 21.9 19 Nordeste 32 Este 0 -- -- 32
2019-03-25 10:00:00 20.8 14 Este 28 Nordeste 0 -- -- 41
2019-03-25 09:00:00 19.6 4 Sudoeste 7 Este 0 -- -- 66
2019-03-25 08:00:00 14.7 5 Este 7 Este 0 -- -- 88
2019-03-25 07:00:00 9.5 6 Nordeste 9 Nordeste 0 -- -- 94
2019-03-25 06:00:00 9.6 6 Nordeste 10 Nordeste 0 -- -- 94
2019-03-25 05:00:00 10.5 4 Este 9 Nordeste 0 -- -- 94
2019-03-25 04:00:00 9.1 8 Nordeste 11 Norte 0 -- -- 93
2019-03-25 03:00:00 10.4 6 Noroeste 9 Sudoeste 0 -- -- 91
2019-03-25 02:00:00 12.1 8 Sudoeste 11 Sudoeste 0 -- -- 89
2019-03-25 01:00:00 11.7 7 Norte 10 Norte 0 -- -- 89
2019-03-25 00:00:00 12.1 7 Norte 14 Norte 0 -- -- 90
2019-03-24 23:00:00 12.1 7 Noroeste 17 Oeste 0 -- -- 91
2019-03-24 22:00:00 12.8 11 Noroeste 20 Oeste 0 -- -- 89
2019-03-24 21:00:00 13 10 Oeste 15 Oeste 0 -- -- 86
2019-03-24 20:00:00 13.2 9 Oeste 18 Oeste 0 -- -- 82
2019-03-24 19:00:00 13.9 11 Oeste 19 Oeste 0 -- -- 76
2019-03-24 18:00:00 16.9 12 Oeste 22 Oeste 0 -- -- 69
2019-03-24 17:00:00 18.2 14 Oeste 26 Sudoeste 0 -- -- 68
2019-03-24 16:00:00 19 16 Sudoeste 24 Sudoeste 0 -- -- 65
2019-03-24 15:00:00 18.6 15 Sudoeste 23 Sudoeste 0 -- -- 61
2019-03-24 14:00:00 19.1 12 Sudoeste 19 Oeste 0 -- -- 55
2019-03-24 13:00:00 18.2 13 Sudoeste 24 Sudoeste 0 -- -- 68
2019-03-24 12:00:00 17.8 12 Sur 19 Sur 0 -- -- 72
2019-03-24 11:00:00 17.3 11 Sur 18 Sur 0 -- -- 78
2019-03-24 10:00:00 18.1 7 Sudoeste 14 Oeste 0 -- -- 83
2019-03-24 09:00:00 17.1 4 Sudoeste 8 Sudoeste 0 -- -- 89
2019-03-24 08:00:00 13.6 3 Sudeste 13 Este 0 -- -- 97
2019-03-24 07:00:00 9.1 11 Este 15 Este 0 -- -- 98
2019-03-24 06:00:00 8.8 10 Nordeste 19 Nordeste 0 -- -- 96
2019-03-24 05:00:00 8.8 8 Este 13 Nordeste 0 -- -- 96
2019-03-24 04:00:00 8.8 9 Nordeste 14 Oeste 0 -- -- 94
2019-03-24 03:00:00 11.6 11 Oeste 16 Oeste 0 -- -- 93
2019-03-24 02:00:00 13 10 Oeste 18 Oeste 0 -- -- 92
2019-03-24 01:00:00 11.9 11 Sudoeste 15 Sudoeste 0 -- -- 91
2019-03-24 00:00:00 12.2 9 Sudoeste 12 Sudoeste 0 -- -- 89
2019-03-23 23:00:00 12.3 7 Oeste 11 Sudoeste 0 -- -- 86
2019-03-23 22:00:00 12.7 7 Sudoeste 10 Sudoeste 0 -- -- 77
2019-03-23 21:00:00 13.2 7 Sudoeste 10 Sudoeste 0 -- -- 65
2019-03-23 20:00:00 13.7 5 Sur 6 Sudoeste 0 -- -- 60
2019-03-23 19:00:00 15.1 3 Sudoeste 13 Oeste 0 -- -- 56
2019-03-23 18:00:00 18.1 9 Sudoeste 16 Oeste 0 -- -- 51
2019-03-23 17:00:00 19.3 10 Oeste 18 Oeste 0 -- -- 53
2019-03-23 16:00:00 19.6 9 Sudoeste 15 Sudoeste 0 -- -- 49
2019-03-23 15:00:00 19.8 9 Sudoeste 23 Sudoeste 0 -- -- 51
2019-03-23 14:00:00 19.4 11 Sudoeste 19 Sudoeste 0 -- -- 47
2019-03-23 13:00:00 20.3 12 Sudeste 21 Sur 0 -- -- 43
2019-03-23 12:00:00 21.2 12 Sudeste 23 Sudeste 0 -- -- 45
2019-03-23 11:00:00 18.9 12 Este 24 Nordeste 0 -- -- 49
2019-03-23 10:00:00 19.5 13 Este 26 Este 0 -- -- 50
2019-03-23 09:00:00 17.2 13 Nordeste 29 Nordeste 0 -- -- 59
2019-03-23 08:00:00 12.7 13 Nordeste 20 Nordeste 0 -- -- 88
2019-03-23 07:00:00 11 11 Nordeste 21 Nordeste 0 -- -- 91
2019-03-23 06:00:00 11 11 Nordeste 21 Nordeste 0 -- -- 90
2019-03-23 05:00:00 11.3 9 Nordeste 14 Nordeste 0 -- -- 91
2019-03-23 04:00:00 11.1 9 Nordeste 14 Norte 0 -- -- 92
2019-03-23 03:00:00 10.8 11 Norte 15 Nordeste 0 -- -- 92
2019-03-23 02:00:00 10.6 12 Nordeste 17 Nordeste 0 -- -- 92
2019-03-23 01:00:00 10.9 11 Nordeste 19 Nordeste 0 -- -- 91
2019-03-23 00:00:00 10.9 13 Nordeste 23 Nordeste 0 -- -- 90
2019-03-22 23:00:00 11.1 12 Nordeste 18 Nordeste 0 -- -- 89
2019-03-22 22:00:00 11.7 12 Nordeste 23 Nordeste 0 -- -- 87
2019-03-22 21:00:00 12.1 14 Nordeste 24 Nordeste 0 -- -- 84
2019-03-22 20:00:00 12.7 12 Nordeste 26 Nordeste 0 -- -- 80
2019-03-22 19:00:00 13.4 13 Nordeste 30 Nordeste 0 -- -- 75
2019-03-22 18:00:00 14.3 17 Nordeste 29 Nordeste 0 -- -- 72
2019-03-22 17:00:00 15.7 15 Nordeste 31 Nordeste 0 -- -- 64
2019-03-22 16:00:00 17.2 18 Nordeste 40 Nordeste 0 -- -- 54
2019-03-22 15:00:00 19.1 19 Nordeste 39 Nordeste 0 -- -- 49
2019-03-22 14:00:00 20 20 Nordeste 38 Nordeste 0 -- -- 49
2019-03-22 13:00:00 19.7 23 Nordeste 45 Nordeste 0 -- -- 50
2019-03-22 12:00:00 19.5 20 Nordeste 37 Nordeste 0 -- -- 54
2019-03-22 11:00:00 18.1 21 Nordeste 37 Norte 0 -- -- 60
2019-03-22 10:00:00 17.6 19 Nordeste 35 Nordeste 0 -- -- 64
2019-03-22 09:00:00 15.1 19 Nordeste 36 Nordeste 0 -- -- 74
2019-03-22 08:00:00 13 15 Nordeste 28 Norte 0 -- -- 82
2019-03-22 07:00:00 11.3 17 Norte 29 Norte 0 -- -- 83
2019-03-22 06:00:00 11 17 Norte 29 Norte 0 -- -- 84
2019-03-22 05:00:00 9.6 16 Norte 28 Norte 0 -- -- 85
2019-03-22 04:00:00 10.1 16 Norte 27 Norte 0 -- -- 83
2019-03-22 03:00:00 10 15 Nordeste 27 Norte 0 -- -- 83
2019-03-22 02:00:00 9.5 10 Norte 19 Norte 0 -- -- 82
2019-03-22 01:00:00 9.7 9 Norte 24 Nordeste 0 -- -- 79
2019-03-22 00:00:00 10 12 Norte 24 Norte 0 -- -- 78
2019-03-21 23:00:00 10.2 14 Norte 28 Norte 0 -- -- 76
2019-03-21 22:00:00 10.5 15 Nordeste 33 Nordeste 0 -- -- 73
2019-03-21 21:00:00 10.4 16 Nordeste 35 Nordeste 0 -- -- 72
2019-03-21 20:00:00 10.5 16 Nordeste 35 Nordeste 0 -- -- 71
2019-03-21 19:00:00 11.3 19 Nordeste 46 Nordeste 0 -- -- 66
2019-03-21 18:00:00 13.3 24 Nordeste 46 Nordeste 0 -- -- 60
2019-03-21 17:00:00 14.3 28 Nordeste 44 Norte 0 -- -- 57
2019-03-21 16:00:00 15.7 26 Nordeste 47 Norte 0 -- -- 51
2019-03-21 15:00:00 14.7 26 Nordeste 46 Nordeste 0 -- -- 52
2019-03-21 14:00:00 16.4 24 Nordeste 48 Nordeste 0 -- -- 50
2019-03-21 13:00:00 15.5 23 Nordeste 50 Nordeste 0 -- -- 51
2019-03-21 12:00:00 15.3 26 Nordeste 48 Nordeste 0 -- -- 53
2019-03-21 11:00:00 14.6 23 Nordeste 48 Nordeste 0 -- -- 55
2019-03-21 10:00:00 14.8 24 Nordeste 57 Nordeste 0 -- -- 55
2019-03-21 09:00:00 13.8 19 Nordeste 35 Nordeste 0 -- -- 62
2019-03-21 08:00:00 11.2 16 Nordeste 33 Nordeste 0 -- -- 70
2019-03-21 07:00:00 8.5 16 Nordeste 26 Nordeste 0 -- -- 70
2019-03-21 06:00:00 8.3 16 Nordeste 29 Nordeste 0 -- -- 69
2019-03-21 05:00:00 8.3 17 Norte 29 Nordeste 0 -- -- 73
2019-03-21 04:00:00 8.3 15 Norte 23 Nordeste 0 -- -- 75
2019-03-21 03:00:00 7.5 12 Nordeste 24 Nordeste 0 -- -- 79
2019-03-21 02:00:00 8 14 Nordeste 26 Nordeste 0 -- -- 79
2019-03-21 01:00:00 8.1 15 Nordeste 37 Norte 0 -- -- 81
2019-03-21 00:00:00 8.2 15 Norte 26 Norte 0 -- -- 82
2019-03-20 23:00:00 8 12 Norte 21 Nordeste 0 -- -- 79
2019-03-20 22:00:00 8.6 13 Norte 30 Nordeste 0 -- -- 75
2019-03-20 21:00:00 9.1 18 Nordeste 35 Nordeste 0 -- -- 75
2019-03-20 20:00:00 9.2 18 Nordeste 33 Nordeste 0 -- -- 77
2019-03-20 19:00:00 9.8 18 Nordeste 35 Nordeste 0 -- -- 80
2019-03-20 18:00:00 9.9 8 Noroeste 24 Nordeste 0 -- -- 86
2019-03-20 17:00:00 9.3 13 Nordeste 29 Norte 0 -- -- 82
2019-03-20 16:00:00 10.4 22 Nordeste 45 Nordeste 0 -- -- 71
2019-03-20 15:00:00 10.8 23 Norte 44 Norte 0 -- -- 69
2019-03-20 14:00:00 10.4 23 Nordeste 48 Norte 0 -- -- 79
2019-03-20 13:00:00 9.2 10 Nordeste 42 Norte 2.2 -- -- 83
2019-03-20 12:00:00 9.5 22 Norte 41 Norte 0 -- -- 71
2019-03-20 11:00:00 12 19 Nordeste 40 Norte 0 -- -- 57
2019-03-20 10:00:00 13.8 22 Norte 39 Nordeste 0 -- -- 51
2019-03-20 09:00:00 12.6 22 Nordeste 39 Norte 0 -- -- 58
2019-03-20 08:00:00 11.2 16 Nordeste 29 Nordeste 0 -- -- 68
2019-03-20 07:00:00 9 15 Nordeste 31 Nordeste 0 -- -- 78
2019-03-20 06:00:00 8.9 15 Nordeste 28 Nordeste 0 -- -- 79
2019-03-20 05:00:00 8.3 16 Nordeste 26 Nordeste 0 -- -- 79
2019-03-20 04:00:00 8.3 13 Nordeste 27 Nordeste 0 -- -- 77
2019-03-20 03:00:00 8.9 15 Nordeste 32 Norte 0 -- -- 78
2019-03-20 02:00:00 9.3 17 Nordeste 29 Nordeste 0 -- -- 78
2019-03-20 01:00:00 8.8 14 Nordeste 35 Nordeste 0 -- -- 80
2019-03-20 00:00:00 8.4 13 Nordeste 30 Nordeste 0.2 -- -- 77
2019-03-19 23:00:00 8.3 15 Nordeste 23 Nordeste 0 -- -- 79
2019-03-19 22:00:00 8 10 Norte 18 Norte 0 -- -- 76
2019-03-19 21:00:00 8.1 6 Norte 18 Norte 0 -- -- 74
2019-03-19 20:00:00 8.3 9 Norte 16 Norte 0 -- -- 73
2019-03-19 19:00:00 9.6 11 Nordeste 23 Nordeste 0 -- -- 67
2019-03-19 18:00:00 11.6 12 Nordeste 26 Nordeste 0 -- -- 62
2019-03-19 17:00:00 12.3 17 Nordeste 31 Nordeste 0 -- -- 61
2019-03-19 16:00:00 11.9 16 Nordeste 30 Nordeste 0 -- -- 66
2019-03-19 15:00:00 12.3 12 Este 23 Nordeste 0 -- -- 75
2019-03-19 14:00:00 11.5 9 Norte 16 Norte 0 -- -- 83
2019-03-19 13:00:00 9.6 6 Este 13 Norte 0.2 -- -- 88
2019-03-19 12:00:00 9.2 7 Norte 10 Norte 1.2 -- -- 90
2019-03-19 11:00:00 8 6 Noroeste 19 Noroeste 3.6 -- -- 90
2019-03-19 10:00:00 8.5 7 Noroeste 16 Sudoeste 1.2 -- -- 87
2019-03-19 09:00:00 8.8 5 Noroeste 24 Oeste 0.8 -- -- 83
2019-03-19 08:00:00 8.6 18 Oeste 39 Oeste 0 -- -- 80
2019-03-19 07:00:00 9.6 16 Oeste 26 Sudoeste 0 -- -- 81
2019-03-19 06:00:00 9.4 8 Oeste 17 Noroeste 0 -- -- 81
2019-03-19 05:00:00 9 2 Este 6 Este 0 -- -- 81
2019-03-19 04:00:00 8.8 5 Este 9 Este 0 -- -- 84
2019-03-19 03:00:00 8.2 6 Nordeste 8 Nordeste 0 -- -- 88
2019-03-19 02:00:00 8.3 7 Nordeste 9 Norte 0 -- -- 88
2019-03-19 01:00:00 7.7 7 Nordeste 9 Nordeste 0 -- -- 89
2019-03-19 00:00:00 7.4 5 Nordeste 9 Nordeste 0 -- -- 88